Terminal Aerodrome Forecast
Issued by NWS Dallas/Fort Worth, TX

Home | Current Version | Previous Version | Text Only | Print | Product List | Glossary On
Versions: 1 2 3 4 5 6 7 8 9 10 11 12 13 14 15 16 17 18 19 20 21 22 23 24 25 26 27 28 29 30 31 32 33 34 35 36 37 38
000
FTUS44 KFWD 231100 CCA
TAFDFW
TAF COR
KDFW 231127Z 2312/2418 20010KT P6SM FEW002 SCT250
      TEMPO 2312/2313 2SM BR OVC002
     FM231800 24017KT P6SM SKC
     FM232200 30024G34KT P6SM SKC
     FM240200 32018G28KT P6SM SCT080
     FM240600 31013KT P6SM SKC=

USA.gov is the U.S. government's official web portal to all federal, state and local government web resources and services.